sensor_id;sensor_type;location;lat;lon;timestamp;P1;P2;P0
44871;PMS7003;30602;51.060;17.226;2023-04-03T00:01:56;1;1;1
44871;PMS7003;30602;51.060;17.226;2023-04-03T00:05:17;4;2;2
44871;PMS7003;30602;51.060;17.226;2023-04-03T00:08:40;1;1;1
44871;PMS7003;30602;51.060;17.226;2023-04-03T00:12:21;2;1;0
44871;PMS7003;30602;51.060;17.226;2023-04-03T00:15:46;2;1;1
44871;PMS7003;30602;51.060;17.226;2023-04-03T00:19:43;1;1;1
44871;PMS7003;30602;51.060;17.226;2023-04-03T00:23:05;0;0;0
44871;PMS7003;30602;51.060;17.226;2023-04-03T00:26:45;3;1;1
44871;PMS7003;30602;51.060;17.226;2023-04-03T00:30:20;2;2;0
44871;PMS7003;30602;51.060;17.226;2023-04-03T00:33:45;1;0;0
44871;PMS7003;30602;51.060;17.226;2023-04-03T00:37:58;1;1;1
44871;PMS7003;30602;51.060;17.226;2023-04-03T00:42:02;3;2;1
44871;PMS7003;30602;51.060;17.226;2023-04-03T00:45:28;2;1;0
44871;PMS7003;30602;51.060;17.226;2023-04-03T00:48:57;1;1;1
44871;PMS7003;30602;51.060;17.226;2023-04-03T00:52:32;1;0;0
44871;PMS7003;30602;51.060;17.226;2023-04-03T00:57:02;1;1;0
44871;PMS7003;30602;51.060;17.226;2023-04-03T01:04:37;3;2;2
44871;PMS7003;30602;51.060;17.226;2023-04-03T01:08:03;2;1;1
44871;PMS7003;30602;51.060;17.226;2023-04-03T01:11:27;1;1;0
44871;PMS7003;30602;51.060;17.226;2023-04-03T01:15:11;1;0;0
44871;PMS7003;30602;51.060;17.226;2023-04-03T01:18:57;3;2;1
44871;PMS7003;30602;51.060;17.226;2023-04-03T01:22:48;2;1;0
44871;PMS7003;30602;51.060;17.226;2023-04-03T01:27:04;0;0;0
44871;PMS7003;30602;51.060;17.226;2023-04-03T01:30:41;0;0;0
44871;PMS7003;30602;51.060;17.226;2023-04-03T01:34:20;1;0;0
44871;PMS7003;30602;51.060;17.226;2023-04-03T01:38:36;4;2;1
44871;PMS7003;30602;51.060;17.226;2023-04-03T01:42:19;1;1;0
44871;PMS7003;30602;51.060;17.226;2023-04-03T01:45:38;1;1;1
44871;PMS7003;30602;51.060;17.226;2023-04-03T01:49:01;3;1;1
44871;PMS7003;30602;51.060;17.226;2023-04-03T01:53:08;0;0;0
44871;PMS7003;30602;51.060;17.226;2023-04-03T01:57:00;1;0;0
44871;PMS7003;30602;51.060;17.226;2023-04-03T02:00:38;2;1;1
44871;PMS7003;30602;51.060;17.226;2023-04-03T02:04:11;2;1;1
44871;PMS7003;30602;51.060;17.226;2023-04-03T02:08:18;1;0;0
44871;PMS7003;30602;51.060;17.226;2023-04-03T02:12:26;2;1;0
44871;PMS7003;30602;51.060;17.226;2023-04-03T02:19:32;1;1;0
44871;PMS7003;30602;51.060;17.226;2023-04-03T02:26:59;2;0;0
44871;PMS7003;30602;51.060;17.226;2023-04-03T02:30:20;4;2;0
44871;PMS7003;30602;51.060;17.226;2023-04-03T02:33:56;0;0;0
44871;PMS7003;30602;51.060;17.226;2023-04-03T02:37:41;3;1;1
44871;PMS7003;30602;51.060;17.226;2023-04-03T02:41:26;2;1;0
44871;PMS7003;30602;51.060;17.226;2023-04-03T02:44:55;0;0;0
44871;PMS7003;30602;51.060;17.226;2023-04-03T02:48:21;0;0;0
44871;PMS7003;30602;51.060;17.226;2023-04-03T02:52:02;0;0;0
44871;PMS7003;30602;51.060;17.226;2023-04-03T02:55:42;3;0;0
44871;PMS7003;30602;51.060;17.226;2023-04-03T02:59:35;1;1;0
44871;PMS7003;30602;51.060;17.226;2023-04-03T03:03:00;4;2;1
44871;PMS7003;30602;51.060;17.226;2023-04-03T03:06:36;3;1;0
44871;PMS7003;30602;51.060;17.226;2023-04-03T03:10:26;3;0;0
44871;PMS7003;30602;51.060;17.226;2023-04-03T03:14:30;1;0;0
44871;PMS7003;30602;51.060;17.226;2023-04-03T03:18:08;1;0;0
44871;PMS7003;30602;51.060;17.226;2023-04-03T03:21:32;2;2;0
44871;PMS7003;30602;51.060;17.226;2023-04-03T03:25:19;2;1;0
44871;PMS7003;30602;51.060;17.226;2023-04-03T03:29:31;1;1;0
44871;PMS7003;30602;51.060;17.226;2023-04-03T03:32:50;1;0;0
44871;PMS7003;30602;51.060;17.226;2023-04-03T03:36:55;3;1;1
44871;PMS7003;30602;51.060;17.226;2023-04-03T03:40:40;1;1;0
44871;PMS7003;30602;51.060;17.226;2023-04-03T03:44:24;4;1;1
44871;PMS7003;30602;51.060;17.226;2023-04-03T03:48:54;0;0;0
44871;PMS7003;30602;51.060;17.226;2023-04-03T03:52:33;2;2;2
44871;PMS7003;30602;51.060;17.226;2023-04-03T03:56:09;1;1;0
44871;PMS7003;30602;51.060;17.226;2023-04-03T03:59:49;2;0;0
44871;PMS7003;30602;51.060;17.226;2023-04-03T04:03:09;1;1;1
44871;PMS7003;30602;51.060;17.226;2023-04-03T04:06:52;3;3;2
44871;PMS7003;30602;51.060;17.226;2023-04-03T04:10:23;2;1;1
44871;PMS7003;30602;51.060;17.226;2023-04-03T04:13:44;5;2;2
44871;PMS7003;30602;51.060;17.226;2023-04-03T04:17:17;3;1;0
44871;PMS7003;30602;51.060;17.226;2023-04-03T04:20:36;3;2;0
44871;PMS7003;30602;51.060;17.226;2023-04-03T04:24:14;4;1;0
44871;PMS7003;30602;51.060;17.226;2023-04-03T04:27:37;1;1;0
44871;PMS7003;30602;51.060;17.226;2023-04-03T04:31:29;2;1;1
44871;PMS7003;30602;51.060;17.226;2023-04-03T04:35:25;3;1;1
44871;PMS7003;30602;51.060;17.226;2023-04-03T04:39:06;5;3;2
44871;PMS7003;30602;51.060;17.226;2023-04-03T04:43:22;4;2;1
44871;PMS7003;30602;51.060;17.226;2023-04-03T04:47:37;2;2;2
44871;PMS7003;30602;51.060;17.226;2023-04-03T04:51:17;2;2;1
44871;PMS7003;30602;51.060;17.226;2023-04-03T04:55:03;4;2;1
44871;PMS7003;30602;51.060;17.226;2023-04-03T04:58:35;1;1;1
44871;PMS7003;30602;51.060;17.226;2023-04-03T05:02:14;3;2;0
44871;PMS7003;30602;51.060;17.226;2023-04-03T05:05:58;2;1;1
44871;PMS7003;30602;51.060;17.226;2023-04-03T05:09:40;2;2;2
44871;PMS7003;30602;51.060;17.226;2023-04-03T05:13:22;1;1;1
44871;PMS7003;30602;51.060;17.226;2023-04-03T05:16:54;2;2;1
44871;PMS7003;30602;51.060;17.226;2023-04-03T05:20:17;3;2;1
44871;PMS7003;30602;51.060;17.226;2023-04-03T05:23:59;2;1;1
44871;PMS7003;30602;51.060;17.226;2023-04-03T05:27:40;5;2;2
44871;PMS7003;30602;51.060;17.226;2023-04-03T05:31:03;2;2;2
44871;PMS7003;30602;51.060;17.226;2023-04-03T05:34:54;2;2;1
44871;PMS7003;30602;51.060;17.226;2023-04-03T05:38:39;2;2;1
44871;PMS7003;30602;51.060;17.226;2023-04-03T05:42:15;2;1;1
44871;PMS7003;30602;51.060;17.226;2023-04-03T05:45:56;2;2;2
44871;PMS7003;30602;51.060;17.226;2023-04-03T05:49:53;1;0;0
44871;PMS7003;30602;51.060;17.226;2023-04-03T05:53:37;3;3;1
44871;PMS7003;30602;51.060;17.226;2023-04-03T05:57:39;4;4;3
44871;PMS7003;30602;51.060;17.226;2023-04-03T06:01:33;7;6;5
44871;PMS7003;30602;51.060;17.226;2023-04-03T06:05:08;1;1;0
44871;PMS7003;30602;51.060;17.226;2023-04-03T06:08:53;4;3;3
44871;PMS7003;30602;51.060;17.226;2023-04-03T06:16:36;1;1;0
44871;PMS7003;30602;51.060;17.226;2023-04-03T06:20:54;5;4;3
44871;PMS7003;30602;51.060;17.226;2023-04-03T06:24:31;1;1;1
44871;PMS7003;30602;51.060;17.226;2023-04-03T06:28:09;2;2;1
44871;PMS7003;30602;51.060;17.226;2023-04-03T06:31:49;3;2;1
44871;PMS7003;30602;51.060;17.226;2023-04-03T06:35:58;5;3;3
44871;PMS7003;30602;51.060;17.226;2023-04-03T06:39:31;3;2;1
44871;PMS7003;30602;51.060;17.226;2023-04-03T06:43:12;1;1;0
44871;PMS7003;30602;51.060;17.226;2023-04-03T06:47:02;2;2;2
44871;PMS7003;30602;51.060;17.226;2023-04-03T06:50:43;3;3;2
44871;PMS7003;30602;51.060;17.226;2023-04-03T06:54:34;3;3;2
44871;PMS7003;30602;51.060;17.226;2023-04-03T06:58:10;3;3;2
44871;PMS7003;30602;51.060;17.226;2023-04-03T07:01:57;4;3;3
44871;PMS7003;30602;51.060;17.226;2023-04-03T07:05:26;5;5;4
44871;PMS7003;30602;51.060;17.226;2023-04-03T07:09:01;5;4;3
44871;PMS7003;30602;51.060;17.226;2023-04-03T07:12:20;7;5;3
44871;PMS7003;30602;51.060;17.226;2023-04-03T07:15:40;4;4;4
44871;PMS7003;30602;51.060;17.226;2023-04-03T07:19:24;7;6;4
44871;PMS7003;30602;51.060;17.226;2023-04-03T07:23:10;4;3;3
44871;PMS7003;30602;51.060;17.226;2023-04-03T07:26:50;7;6;5
44871;PMS7003;30602;51.060;17.226;2023-04-03T07:30:34;3;3;3
44871;PMS7003;30602;51.060;17.226;2023-04-03T07:34:10;4;4;3
44871;PMS7003;30602;51.060;17.226;2023-04-03T07:37:31;7;5;4
44871;PMS7003;30602;51.060;17.226;2023-04-03T07:40:53;3;3;3
44871;PMS7003;30602;51.060;17.226;2023-04-03T07:44:37;3;3;3
44871;PMS7003;30602;51.060;17.226;2023-04-03T07:48:43;3;3;3
44871;PMS7003;30602;51.060;17.226;2023-04-03T07:52:15;4;4;3
44871;PMS7003;30602;51.060;17.226;2023-04-03T07:55:40;7;3;3
44871;PMS7003;30602;51.060;17.226;2023-04-03T07:59:49;5;4;3
44871;PMS7003;30602;51.060;17.226;2023-04-03T08:03:18;4;4;3
44871;PMS7003;30602;51.060;17.226;2023-04-03T08:07:03;7;3;2
44871;PMS7003;30602;51.060;17.226;2023-04-03T08:10:38;3;3;3
44871;PMS7003;30602;51.060;17.226;2023-04-03T08:15:00;2;2;2
44871;PMS7003;30602;51.060;17.226;2023-04-03T08:18:43;4;4;3
44871;PMS7003;30602;51.060;17.226;2023-04-03T08:29:56;3;3;1
44871;PMS7003;30602;51.060;17.226;2023-04-03T08:33:52;3;2;2
44871;PMS7003;30602;51.060;17.226;2023-04-03T08:37:26;5;2;2
44871;PMS7003;30602;51.060;17.226;2023-04-03T08:48:30;3;2;1
44871;PMS7003;30602;51.060;17.226;2023-04-03T08:55:42;2;1;0
44871;PMS7003;30602;51.060;17.226;2023-04-03T09:00:16;1;1;0
44871;PMS7003;30602;51.060;17.226;2023-04-03T09:04:10;1;1;0
44871;PMS7003;30602;51.060;17.226;2023-04-03T09:12:15;2;1;1
44871;PMS7003;30602;51.060;17.226;2023-04-03T09:23:59;0;0;0
44871;PMS7003;30602;51.060;17.226;2023-04-03T09:27:44;1;1;1
44871;PMS7003;30602;51.060;17.226;2023-04-03T09:31:29;1;1;1
44871;PMS7003;30602;51.060;17.226;2023-04-03T09:35:21;3;3;2
44871;PMS7003;30602;51.060;17.226;2023-04-03T09:39:02;2;2;2
44871;PMS7003;30602;51.060;17.226;2023-04-03T09:42:45;2;2;1
44871;PMS7003;30602;51.060;17.226;2023-04-03T09:58:00;4;3;3
44871;PMS7003;30602;51.060;17.226;2023-04-03T10:01:29;2;2;1
44871;PMS7003;30602;51.060;17.226;2023-04-03T10:04:55;3;1;1
44871;PMS7003;30602;51.060;17.226;2023-04-03T10:08:20;3;3;2
44871;PMS7003;30602;51.060;17.226;2023-04-03T10:12:41;3;3;3
44871;PMS7003;30602;51.060;17.226;2023-04-03T10:16:34;2;1;1
44871;PMS7003;30602;51.060;17.226;2023-04-03T10:20:42;2;2;1
44871;PMS7003;30602;51.060;17.226;2023-04-03T10:32:26;2;2;2
44871;PMS7003;30602;51.060;17.226;2023-04-03T10:36:15;4;3;2
44871;PMS7003;30602;51.060;17.226;2023-04-03T10:40:20;2;2;1
44871;PMS7003;30602;51.060;17.226;2023-04-03T10:48:16;1;1;0
44871;PMS7003;30602;51.060;17.226;2023-04-03T10:51:48;0;0;0
44871;PMS7003;30602;51.060;17.226;2023-04-03T10:55:56;3;2;2
44871;PMS7003;30602;51.060;17.226;2023-04-03T11:00:02;2;1;1
44871;PMS7003;30602;51.060;17.226;2023-04-03T11:03:52;2;2;1
44871;PMS7003;30602;51.060;17.226;2023-04-03T11:07:47;1;1;1
44871;PMS7003;30602;51.060;17.226;2023-04-03T11:11:36;2;0;0
44871;PMS7003;30602;51.060;17.226;2023-04-03T11:15:02;3;3;2
44871;PMS7003;30602;51.060;17.226;2023-04-03T11:18:43;1;1;1
44871;PMS7003;30602;51.060;17.226;2023-04-03T11:25:43;2;2;1
44871;PMS7003;30602;51.060;17.226;2023-04-03T11:29:13;2;2;1
44871;PMS7003;30602;51.060;17.226;2023-04-03T11:33:16;1;0;0
44871;PMS7003;30602;51.060;17.226;2023-04-03T11:36:47;2;1;1
44871;PMS7003;30602;51.060;17.226;2023-04-03T11:40:33;2;2;0
44871;PMS7003;30602;51.060;17.226;2023-04-03T11:44:35;1;1;1
44871;PMS7003;30602;51.060;17.226;2023-04-03T11:47:57;2;2;2
44871;PMS7003;30602;51.060;17.226;2023-04-03T11:59:42;2;2;1
44871;PMS7003;30602;51.060;17.226;2023-04-03T12:07:18;1;1;0
44871;PMS7003;30602;51.060;17.226;2023-04-03T12:10:39;3;1;1
44871;PMS7003;30602;51.060;17.226;2023-04-03T12:14:16;1;1;1
44871;PMS7003;30602;51.060;17.226;2023-04-03T12:17:51;2;1;1
44871;PMS7003;30602;51.060;17.226;2023-04-03T12:40:57;1;0;0
44871;PMS7003;30602;51.060;17.226;2023-04-03T12:45:20;2;1;1
44871;PMS7003;30602;51.060;17.226;2023-04-03T12:48:56;4;4;3
44871;PMS7003;30602;51.060;17.226;2023-04-03T13:08:32;8;3;3
44871;PMS7003;30602;51.060;17.226;2023-04-03T13:11:56;5;3;2
44871;PMS7003;30602;51.060;17.226;2023-04-03T13:19:37;5;3;2
44871;PMS7003;30602;51.060;17.226;2023-04-03T13:23:57;9;5;4
44871;PMS7003;30602;51.060;17.226;2023-04-03T13:27:36;5;4;3
44871;PMS7003;30602;51.060;17.226;2023-04-03T13:39:33;7;5;3
44871;PMS7003;30602;51.060;17.226;2023-04-03T13:43:16;4;4;3
44871;PMS7003;30602;51.060;17.226;2023-04-03T13:47:00;4;3;3
44871;PMS7003;30602;51.060;17.226;2023-04-03T13:50:33;3;3;2
44871;PMS7003;30602;51.060;17.226;2023-04-03T13:54:36;3;3;3
44871;PMS7003;30602;51.060;17.226;2023-04-03T13:59:06;3;3;2
44871;PMS7003;30602;51.060;17.226;2023-04-03T14:02:38;6;4;4
44871;PMS7003;30602;51.060;17.226;2023-04-03T14:06:05;5;3;3
44871;PMS7003;30602;51.060;17.226;2023-04-03T14:10:02;6;3;2
44871;PMS7003;30602;51.060;17.226;2023-04-03T14:13:54;3;3;2
44871;PMS7003;30602;51.060;17.226;2023-04-03T14:18:03;3;2;2
44871;PMS7003;30602;51.060;17.226;2023-04-03T14:26:15;3;3;2
44871;PMS7003;30602;51.060;17.226;2023-04-03T14:29:41;2;2;2
44871;PMS7003;30602;51.060;17.226;2023-04-03T14:34:09;5;4;3
44871;PMS7003;30602;51.060;17.226;2023-04-03T14:37:41;7;6;5
44871;PMS7003;30602;51.060;17.226;2023-04-03T14:41:03;5;5;4
44871;PMS7003;30602;51.060;17.226;2023-04-03T14:44:56;2;2;2
44871;PMS7003;30602;51.060;17.226;2023-04-03T14:49:03;3;3;2
44871;PMS7003;30602;51.060;17.226;2023-04-03T14:52:43;4;3;3
44871;PMS7003;30602;51.060;17.226;2023-04-03T14:57:38;4;2;2
44871;PMS7003;30602;51.060;17.226;2023-04-03T15:01:20;3;1;0
44871;PMS7003;30602;51.060;17.226;2023-04-03T15:04:46;4;4;2
44871;PMS7003;30602;51.060;17.226;2023-04-03T15:08:21;2;2;2
44871;PMS7003;30602;51.060;17.226;2023-04-03T15:12:15;3;3;2
44871;PMS7003;30602;51.060;17.226;2023-04-03T15:15:59;4;3;2
44871;PMS7003;30602;51.060;17.226;2023-04-03T15:19:25;3;3;2
44871;PMS7003;30602;51.060;17.226;2023-04-03T15:22:47;5;3;2
44871;PMS7003;30602;51.060;17.226;2023-04-03T15:26:40;2;2;2
44871;PMS7003;30602;51.060;17.226;2023-04-03T15:30:04;3;2;2
44871;PMS7003;30602;51.060;17.226;2023-04-03T15:33:25;3;2;2
44871;PMS7003;30602;51.060;17.226;2023-04-03T15:36:45;4;2;2
44871;PMS7003;30602;51.060;17.226;2023-04-03T15:40:33;3;3;3
44871;PMS7003;30602;51.060;17.226;2023-04-03T15:44:15;3;3;2
44871;PMS7003;30602;51.060;17.226;2023-04-03T15:48:01;3;3;3
44871;PMS7003;30602;51.060;17.226;2023-04-03T15:51:26;4;3;3
44871;PMS7003;30602;51.060;17.226;2023-04-03T15:55:09;4;2;2
44871;PMS7003;30602;51.060;17.226;2023-04-03T15:58:31;3;3;3
44871;PMS7003;30602;51.060;17.226;2023-04-03T16:03:02;6;4;3
44871;PMS7003;30602;51.060;17.226;2023-04-03T16:07:07;5;3;3
44871;PMS7003;30602;51.060;17.226;2023-04-03T16:10:31;3;3;2
44871;PMS7003;30602;51.060;17.226;2023-04-03T16:14:44;3;3;3
44871;PMS7003;30602;51.060;17.226;2023-04-03T16:18:11;3;3;2
44871;PMS7003;30602;51.060;17.226;2023-04-03T16:21:34;5;4;4
44871;PMS7003;30602;51.060;17.226;2023-04-03T16:25:16;6;6;6
44871;PMS7003;30602;51.060;17.226;2023-04-03T16:29:06;5;5;4
44871;PMS7003;30602;51.060;17.226;2023-04-03T16:36:52;6;6;5
44871;PMS7003;30602;51.060;17.226;2023-04-03T16:40:56;6;5;5
44871;PMS7003;30602;51.060;17.226;2023-04-03T16:45:08;7;6;5
44871;PMS7003;30602;51.060;17.226;2023-04-03T16:48:34;4;4;3
44871;PMS7003;30602;51.060;17.226;2023-04-03T16:51:59;5;3;3
44871;PMS7003;30602;51.060;17.226;2023-04-03T16:55:44;4;4;3
44871;PMS7003;30602;51.060;17.226;2023-04-03T16:59:09;2;2;2
44871;PMS7003;30602;51.060;17.226;2023-04-03T17:03:02;5;4;3
44871;PMS7003;30602;51.060;17.226;2023-04-03T17:06:43;8;6;5
44871;PMS7003;30602;51.060;17.226;2023-04-03T17:10:50;6;5;4
44871;PMS7003;30602;51.060;17.226;2023-04-03T17:14:34;3;3;3
44871;PMS7003;30602;51.060;17.226;2023-04-03T17:18:32;3;3;3
44871;PMS7003;30602;51.060;17.226;2023-04-03T17:23:00;5;5;4
44871;PMS7003;30602;51.060;17.226;2023-04-03T17:26:20;5;3;3
44871;PMS7003;30602;51.060;17.226;2023-04-03T17:30:03;7;3;3
44871;PMS7003;30602;51.060;17.226;2023-04-03T17:34:00;7;5;4
44871;PMS7003;30602;51.060;17.226;2023-04-03T17:37:39;5;4;4
44871;PMS7003;30602;51.060;17.226;2023-04-03T17:41:04;10;7;4
44871;PMS7003;30602;51.060;17.226;2023-04-03T17:45:08;11;9;6
44871;PMS7003;30602;51.060;17.226;2023-04-03T17:49:49;5;4;4
44871;PMS7003;30602;51.060;17.226;2023-04-03T17:53:24;8;6;5
44871;PMS7003;30602;51.060;17.226;2023-04-03T17:57:30;4;4;4
44871;PMS7003;30602;51.060;17.226;2023-04-03T18:01:24;9;7;5
44871;PMS7003;30602;51.060;17.226;2023-04-03T18:05:44;10;7;6
44871;PMS7003;30602;51.060;17.226;2023-04-03T18:09:43;8;8;6
44871;PMS7003;30602;51.060;17.226;2023-04-03T18:14:00;7;6;5
44871;PMS7003;30602;51.060;17.226;2023-04-03T18:17:56;7;7;6
44871;PMS7003;30602;51.060;17.226;2023-04-03T18:21:31;5;4;3
44871;PMS7003;30602;51.060;17.226;2023-04-03T18:25:22;7;7;6
44871;PMS7003;30602;51.060;17.226;2023-04-03T18:29:29;12;11;8
44871;PMS7003;30602;51.060;17.226;2023-04-03T18:32:55;30;21;14
44871;PMS7003;30602;51.060;17.226;2023-04-03T18:36:47;38;33;21
44871;PMS7003;30602;51.060;17.226;2023-04-03T18:40:23;48;40;24
44871;PMS7003;30602;51.060;17.226;2023-04-03T18:43:45;25;24;18
44871;PMS7003;30602;51.060;17.226;2023-04-03T18:47:34;35;26;17
44871;PMS7003;30602;51.060;17.226;2023-04-03T18:51:50;28;20;16
44871;PMS7003;30602;51.060;17.226;2023-04-03T18:55:46;22;21;14
44871;PMS7003;30602;51.060;17.226;2023-04-03T19:00:04;36;31;20
44871;PMS7003;30602;51.060;17.226;2023-04-03T19:04:17;38;32;20
44871;PMS7003;30602;51.060;17.226;2023-04-03T19:08:43;27;22;18
44871;PMS7003;30602;51.060;17.226;2023-04-03T19:12:57;27;21;16
44871;PMS7003;30602;51.060;17.226;2023-04-03T19:16:22;14;12;10
44871;PMS7003;30602;51.060;17.226;2023-04-03T19:20:33;33;30;17
44871;PMS7003;30602;51.060;17.226;2023-04-03T19:24:35;35;29;17
44871;PMS7003;30602;51.060;17.226;2023-04-03T19:32:33;59;43;25
44871;PMS7003;30602;51.060;17.226;2023-04-03T19:36:27;33;25;14
44871;PMS7003;30602;51.060;17.226;2023-04-03T19:40:19;40;33;20
44871;PMS7003;30602;51.060;17.226;2023-04-03T19:44:28;32;25;15
44871;PMS7003;30602;51.060;17.226;2023-04-03T19:48:11;18;13;9
44871;PMS7003;30602;51.060;17.226;2023-04-03T19:51:46;7;5;4
44871;PMS7003;30602;51.060;17.226;2023-04-03T19:55:21;6;4;4
44871;PMS7003;30602;51.060;17.226;2023-04-03T20:03:41;6;5;4
44871;PMS7003;30602;51.060;17.226;2023-04-03T20:07:53;7;4;3
44871;PMS7003;30602;51.060;17.226;2023-04-03T20:11:14;7;7;5
44871;PMS7003;30602;51.060;17.226;2023-04-03T20:14:54;10;7;6
44871;PMS7003;30602;51.060;17.226;2023-04-03T20:19:14;9;9;6
44871;PMS7003;30602;51.060;17.226;2023-04-03T20:22:36;8;5;5
44871;PMS7003;30602;51.060;17.226;2023-04-03T20:25:57;4;3;3
44871;PMS7003;30602;51.060;17.226;2023-04-03T20:29:51;10;7;5
44871;PMS7003;30602;51.060;17.226;2023-04-03T20:33:17;4;3;3
44871;PMS7003;30602;51.060;17.226;2023-04-03T20:36:58;6;4;3
44871;PMS7003;30602;51.060;17.226;2023-04-03T20:41:11;8;6;5
44871;PMS7003;30602;51.060;17.226;2023-04-03T20:45:18;3;3;3
44871;PMS7003;30602;51.060;17.226;2023-04-03T20:49:22;4;4;3
44871;PMS7003;30602;51.060;17.226;2023-04-03T20:52:42;4;4;3
44871;PMS7003;30602;51.060;17.226;2023-04-03T20:56:30;3;3;2
44871;PMS7003;30602;51.060;17.226;2023-04-03T21:00:20;3;2;2
44871;PMS7003;30602;51.060;17.226;2023-04-03T21:04:27;5;5;4
44871;PMS7003;30602;51.060;17.226;2023-04-03T21:20:18;5;5;3
44871;PMS7003;30602;51.060;17.226;2023-04-03T21:24:17;2;2;2
44871;PMS7003;30602;51.060;17.226;2023-04-03T21:27:39;3;3;2
44871;PMS7003;30602;51.060;17.226;2023-04-03T21:31:02;3;3;3
44871;PMS7003;30602;51.060;17.226;2023-04-03T21:34:44;5;2;2
44871;PMS7003;30602;51.060;17.226;2023-04-03T21:38:09;5;3;3
44871;PMS7003;30602;51.060;17.226;2023-04-03T21:45:40;4;3;2
44871;PMS7003;30602;51.060;17.226;2023-04-03T21:49:34;6;4;3
44871;PMS7003;30602;51.060;17.226;2023-04-03T21:53:06;6;6;5
44871;PMS7003;30602;51.060;17.226;2023-04-03T21:56:53;6;6;4
44871;PMS7003;30602;51.060;17.226;2023-04-03T22:00:16;12;9;7
44871;PMS7003;30602;51.060;17.226;2023-04-03T22:04:21;8;7;6
44871;PMS7003;30602;51.060;17.226;2023-04-03T22:08:28;8;7;5
44871;PMS7003;30602;51.060;17.226;2023-04-03T22:12:21;13;10;7
44871;PMS7003;30602;51.060;17.226;2023-04-03T22:16:56;14;10;7
44871;PMS7003;30602;51.060;17.226;2023-04-03T22:20:18;20;19;11
44871;PMS7003;30602;51.060;17.226;2023-04-03T22:24:00;12;9;6
44871;PMS7003;30602;51.060;17.226;2023-04-03T22:27:42;8;8;6
44871;PMS7003;30602;51.060;17.226;2023-04-03T22:32:00;7;6;4
44871;PMS7003;30602;51.060;17.226;2023-04-03T22:35:23;6;5;3
44871;PMS7003;30602;51.060;17.226;2023-04-03T22:39:13;32;25;17
44871;PMS7003;30602;51.060;17.226;2023-04-03T22:42:36;25;20;14
44871;PMS7003;30602;51.060;17.226;2023-04-03T22:46:47;60;43;24
44871;PMS7003;30602;51.060;17.226;2023-04-03T22:50:21;25;21;14
44871;PMS7003;30602;51.060;17.226;2023-04-03T22:55:07;21;15;12
44871;PMS7003;30602;51.060;17.226;2023-04-03T22:58:36;16;12;9
44871;PMS7003;30602;51.060;17.226;2023-04-03T23:02:03;19;14;9
44871;PMS7003;30602;51.060;17.226;2023-04-03T23:05:40;18;12;9
44871;PMS7003;30602;51.060;17.226;2023-04-03T23:09:35;20;16;12
44871;PMS7003;30602;51.060;17.226;2023-04-03T23:13:17;21;18;12
44871;PMS7003;30602;51.060;17.226;2023-04-03T23:17:15;15;12;8
44871;PMS7003;30602;51.060;17.226;2023-04-03T23:20:57;15;11;7
44871;PMS7003;30602;51.060;17.226;2023-04-03T23:24:56;11;9;7
44871;PMS7003;30602;51.060;17.226;2023-04-03T23:28:52;13;10;8
44871;PMS7003;30602;51.060;17.226;2023-04-03T23:32:31;6;6;5
44871;PMS7003;30602;51.060;17.226;2023-04-03T23:36:48;9;7;5
44871;PMS7003;30602;51.060;17.226;2023-04-03T23:40:44;10;7;5
44871;PMS7003;30602;51.060;17.226;2023-04-03T23:44:57;8;8;5
44871;PMS7003;30602;51.060;17.226;2023-04-03T23:48:39;8;7;5
44871;PMS7003;30602;51.060;17.226;2023-04-03T23:52:57;7;6;4
44871;PMS7003;30602;51.060;17.226;2023-04-03T23:56:56;5;5;4
